Time;durP1;ratioP1;P1;durP2;ratioP2;P2;SDS_P1;SDS_P2;PMS_P1;PMS_P2;Temp;Humidity;BMP_temperature;BMP_pressure;BME280_temperature;BME280_humidity;BME280_pressure;Samples;Min_cycle;Max_cycle;Signal;HPM_P1;HPM_P2
2021/04/07 00:02:51;;;;;;;;;8.50;5.75;;;;;12.95;39.80;97310.72;4889632;28;101622;-83
2021/04/07 00:06:00;;;;;;;;;6.00;5.00;;;;;12.95;39.29;97310.72;4903007;28;101774;-82
2021/04/07 00:09:03;;;;;;;;;13.00;7.00;;;;;12.95;40.08;97313.44;4884099;28;102782;-82
2021/04/07 00:12:27;;;;;;;;;6.50;6.25;;;;;12.95;39.13;97316.16;4881726;28;102899;-84
2021/04/07 00:16:01;;;;;;;;;6.00;4.00;;;;;12.93;39.70;97320.97;4893080;28;101935;-81
2021/04/07 00:20:02;;;;;;;;;4.75;4.75;;;;;12.89;39.42;97314.41;4897769;28;101893;-84
2021/04/07 00:24:00;;;;;;;;;7.00;7.00;;;;;12.92;39.80;97318.53;4887844;28;102498;-82
2021/04/07 00:27:38;;;;;;;;;7.00;6.00;;;;;12.92;39.13;97318.53;4896757;28;101608;-82
2021/04/07 00:31:17;;;;;;;;;11.25;6.00;;;;;12.89;39.52;97319.00;4892888;28;101539;-81
2021/04/07 00:35:01;;;;;;;;;6.25;4.75;;;;;12.88;40.16;97318.19;4894231;28;101519;-82
2021/04/07 00:38:35;;;;;;;;;5.75;5.00;;;;;12.88;39.83;97328.22;4897550;28;102574;-82
2021/04/07 00:42:21;;;;;;;;;4.25;4.00;;;;;12.87;39.41;97315.75;4897418;28;101188;-82
2021/04/07 00:46:04;;;;;;;;;5.75;5.00;;;;;12.86;39.20;97319.50;4897356;28;101344;-83
2021/04/07 00:49:31;;;;;;;;;8.00;5.00;;;;;12.84;39.45;97317.03;4894143;28;101886;-82
2021/04/07 00:53:02;;;;;;;;;7.75;6.00;;;;;12.82;39.44;97323.78;4886613;28;102140;-82
2021/04/07 00:56:04;;;;;;;;;10.25;6.00;;;;;12.80;39.77;97331.34;4889743;28;101100;-82
2021/04/07 00:59:01;;;;;;;;;3.00;3.00;;;;;12.83;39.23;97330.88;4877798;28;101766;-82
2021/04/07 01:01:47;;;;;;;;;7.75;7.25;;;;;12.81;39.32;97327.56;4891050;28;101598;-82
2021/04/07 01:05:11;;;;;;;;;6.75;5.25;;;;;12.80;39.91;97329.44;4883647;28;103124;-82
2021/04/07 01:08:09;;;;;;;;;5.50;5.00;;;;;12.79;39.99;97327.81;4900898;28;102087;-84
2021/04/07 01:11:06;;;;;;;;;5.50;4.50;;;;;12.78;39.66;97328.06;4888623;28;102094;-82
2021/04/07 01:14:03;;;;;;;;;5.25;4.50;;;;;12.76;39.68;97335.63;4894751;28;101936;-82
2021/04/07 01:17:00;;;;;;;;;5.50;4.75;;;;;12.78;39.70;97331.59;4867164;28;102522;-81
2021/04/07 01:20:24;;;;;;;;;5.50;5.50;;;;;12.77;39.44;97332.66;4900555;28;101119;-81
2021/04/07 01:24:00;;;;;;;;;6.00;5.00;;;;;12.78;39.89;97333.50;4905382;28;101443;-82
2021/04/07 01:27:36;;;;;;;;;7.00;5.00;;;;;12.76;39.48;97336.44;4908930;28;102758;-82
2021/04/07 01:35:29;;;;;;;;;4.50;4.00;;;;;12.74;39.87;97341.28;4911636;28;101521;-81
2021/04/07 01:39:40;;;;;;;;;6.75;5.00;;;;;12.67;39.36;97335.19;4864551;28;101513;-81
2021/04/07 01:43:16;;;;;;;;;5.00;5.00;;;;;12.73;39.58;97336.94;4905797;28;101825;-81
2021/04/07 01:50:34;;;;;;;;;5.75;5.25;;;;;12.71;39.78;97340.94;4890080;28;102620;-81
2021/04/07 01:54:08;;;;;;;;;4.00;4.00;;;;;12.61;39.28;97324.53;4904881;28;102016;-81
2021/04/07 01:57:37;;;;;;;;;6.00;5.00;;;;;12.69;39.23;97341.22;4891389;28;101824;-82
2021/04/07 02:00:39;;;;;;;;;5.00;4.00;;;;;12.68;39.85;97344.16;4910089;28;104772;-81
2021/04/07 02:04:00;;;;;;;;;6.25;4.00;;;;;12.68;39.47;97346.88;4901727;28;101140;-82
2021/04/07 02:07:13;;;;;;;;;5.00;5.00;;;;;12.66;39.50;97347.09;4893189;28;102155;-82
2021/04/07 02:10:39;;;;;;;;;5.50;4.00;;;;;12.67;39.39;97350.66;4899664;28;101239;-82
2021/04/07 02:14:02;;;;;;;;;8.00;5.00;;;;;12.65;39.30;97341.94;4897163;28;102575;-81
2021/04/07 02:17:10;;;;;;;;;7.00;6.00;;;;;12.60;39.29;97344.56;4893466;28;103703;-81
2021/04/07 02:20:21;;;;;;;;;6.00;5.00;;;;;12.64;39.49;97354.69;4879035;28;102571;-81
2021/04/07 02:23:40;;;;;;;;;6.50;4.00;;;;;12.62;39.41;97356.81;4897282;28;101831;-81
2021/04/07 02:27:00;;;;;;;;;4.00;4.00;;;;;12.62;39.83;97361.41;4905257;28;103641;-81
2021/04/07 02:30:13;;;;;;;;;5.00;4.00;;;;;12.62;39.82;97358.69;4890990;28;102461;-81
2021/04/07 02:33:27;;;;;;;;;5.75;5.00;;;;;12.60;40.07;97356.25;4882474;28;101527;-81
2021/04/07 02:36:51;;;;;;;;;5.00;4.50;;;;;12.59;39.49;97367.31;4906896;28;101601;-81
2021/04/07 02:40:25;;;;;;;;;4.25;3.00;;;;;12.59;39.52;97356.47;4893680;28;102891;-82
2021/04/07 02:44:02;;;;;;;;;5.00;4.50;;;;;12.55;39.89;97347.19;4896102;28;101477;-82
2021/04/07 02:47:13;;;;;;;;;4.00;3.25;;;;;12.57;39.44;97358.59;4882079;28;101370;-81
2021/04/07 02:50:41;;;;;;;;;5.00;4.00;;;;;12.53;39.45;97350.13;4904103;28;102131;-81
2021/04/07 02:54:00;;;;;;;;;3.00;3.00;;;;;12.52;39.54;97359.31;4893667;28;101787;-81
2021/04/07 02:57:12;;;;;;;;;6.00;4.75;;;;;12.54;39.57;97370.75;4880943;28;101747;-82
2021/04/07 03:00:41;;;;;;;;;4.75;4.00;;;;;12.53;39.74;97380.78;4888443;28;103956;-82
2021/04/07 03:03:54;;;;;;;;;5.00;3.50;;;;;12.53;39.09;97380.78;4902144;28;101696;-81
2021/04/07 03:11:02;;;;;;;;;4.25;3.75;;;;;12.52;39.05;97389.97;4902046;28;101884;-81
2021/04/07 03:14:24;;;;;;;;;4.25;4.00;;;;;12.50;39.89;97386.69;4894957;28;101475;-81
2021/04/07 03:18:04;;;;;;;;;5.00;4.00;;;;;12.45;39.44;97383.88;4897063;28;102984;-81
2021/04/07 03:21:43;;;;;;;;;4.00;4.00;;;;;12.49;39.56;97393.19;4887024;28;101757;-81
2021/04/07 03:25:33;;;;;;;;;5.00;4.50;;;;;12.48;39.12;97394.25;4889915;28;101629;-81
2021/04/07 03:28:54;;;;;;;;;4.25;4.00;;;;;12.43;39.38;97387.91;4889177;28;101748;-81
2021/04/07 03:32:09;;;;;;;;;5.50;4.75;;;;;12.46;39.66;97400.97;4896986;28;101239;-82
2021/04/07 03:35:41;;;;;;;;;4.75;4.50;;;;;12.41;39.46;97393.56;4889231;28;101934;-82
2021/04/07 03:38:57;;;;;;;;;4.00;4.00;;;;;12.46;39.14;97411.81;4896690;28;101697;-81
2021/04/07 03:42:08;;;;;;;;;6.25;5.25;;;;;12.43;39.92;97413.13;4892226;28;101860;-81
2021/04/07 03:45:19;;;;;;;;;9.00;6.00;;;;;12.42;39.33;97410.66;4880570;28;101855;-82
2021/04/07 03:49:09;;;;;;;;;7.50;4.75;;;;;12.42;39.20;97419.63;4896312;28;101979;-81
2021/04/07 03:52:23;;;;;;;;;5.00;5.00;;;;;12.42;39.46;97422.34;4885719;28;101589;-82
2021/04/07 03:55:49;;;;;;;;;5.75;5.00;;;;;12.42;39.86;97427.75;4880855;28;101731;-81
2021/04/07 03:59:10;;;;;;;;;6.00;5.00;;;;;12.40;39.08;97429.88;4886198;28;101192;-81
2021/04/07 04:02:22;;;;;;;;;9.25;5.75;;;;;12.36;39.01;97417.03;4893046;28;101829;-81
2021/04/07 04:05:53;;;;;;;;;6.50;5.00;;;;;12.39;39.07;97449.91;4900347;28;101753;-81
2021/04/07 04:09:03;;;;;;;;;5.50;4.75;;;;;12.38;39.17;97464.53;4898095;28;101439;-81
2021/04/07 04:12:10;;;;;;;;;6.00;4.25;;;;;12.38;39.23;97452.88;4890503;28;101595;-81
2021/04/07 04:15:27;;;;;;;;;5.00;5.00;;;;;12.36;39.10;97453.09;4909207;28;102123;-81
2021/04/07 04:18:43;;;;;;;;;5.00;4.00;;;;;12.34;39.84;97422.69;4889319;28;101897;-81
2021/04/07 04:22:12;;;;;;;;;5.25;4.00;;;;;12.38;39.67;97463.72;4898616;28;101785;-81
2021/04/07 04:25:33;;;;;;;;;6.50;5.00;;;;;12.32;39.53;97449.25;4904303;28;101798;-84
2021/04/07 04:29:00;;;;;;;;;7.00;4.75;;;;;12.35;40.17;97458.75;4902667;28;101879;-81
2021/04/07 04:32:24;;;;;;;;;5.00;5.00;;;;;12.36;40.01;97455.81;4894290;28;101876;-81
2021/04/07 04:35:29;;;;;;;;;5.00;4.00;;;;;12.36;39.92;97455.81;4893115;28;101842;-83
2021/04/07 04:38:00;;;;;;;;;4.50;3.50;;;;;12.34;40.09;97468.78;4843544;28;103225;-83
2021/04/07 04:40:56;;;;;;;;;4.50;4.25;;;;;12.35;39.40;97465.00;4834816;28;104141;-81
2021/04/07 04:44:01;;;;;;;;;4.75;4.00;;;;;12.29;39.84;97462.44;4889917;28;101701;-81
2021/04/07 04:47:14;;;;;;;;;5.50;4.00;;;;;12.27;39.90;97462.69;4892607;28;101789;-81
2021/04/07 04:50:40;;;;;;;;;4.00;4.00;;;;;12.34;39.40;97481.50;4889183;28;102252;-82
2021/04/07 04:53:52;;;;;;;;;5.00;4.00;;;;;12.33;39.53;97482.59;4903485;28;104912;-81
2021/04/07 04:57:01;;;;;;;;;7.50;5.00;;;;;12.32;39.76;97464.66;4914578;28;101500;-81
2021/04/07 05:00:01;;;;;;;;;3.25;2.25;;;;;12.33;39.21;97482.59;4869025;28;101508;-81
2021/04/07 05:03:00;;;;;;;;;7.00;4.50;;;;;12.26;39.66;97471.03;4897707;28;101695;-81
2021/04/07 05:06:01;;;;;;;;;5.25;4.25;;;;;12.30;40.02;97489.28;4902235;28;102052;-81
2021/04/07 05:09:02;;;;;;;;;5.00;3.75;;;;;12.31;39.62;97490.13;4895009;28;101351;-82
2021/04/07 05:12:39;;;;;;;;;4.00;3.00;;;;;12.31;39.69;97488.25;4896612;28;101633;-81
2021/04/07 05:16:01;;;;;;;;;6.00;4.00;;;;;12.30;39.26;97496.59;4895174;28;101448;-82
2021/04/07 05:19:01;;;;;;;;;3.00;3.00;;;;;12.31;39.64;97496.38;4881903;28;101885;-81
2021/04/07 05:22:00;;;;;;;;;6.50;4.50;;;;;12.31;39.26;97492.84;4887261;28;101327;-81
2021/04/07 05:25:01;;;;;;;;;4.50;4.50;;;;;12.28;39.08;97488.72;4892457;28;102176;-81
2021/04/07 05:28:02;;;;;;;;;5.00;3.50;;;;;12.32;39.50;97502.63;4879986;28;101910;-82
2021/04/07 05:31:11;;;;;;;;;6.25;4.75;;;;;12.31;39.49;97507.22;4889064;28;101800;-82
2021/04/07 05:34:50;;;;;;;;;2.50;2.50;;;;;12.27;39.48;97500.63;4891639;28;101362;-82
2021/04/07 05:38:17;;;;;;;;;6.00;5.00;;;;;12.31;39.59;97506.38;4884027;28;101066;-81
2021/04/07 05:42:09;;;;;;;;;4.50;4.50;;;;;12.30;39.60;97510.16;4899572;28;101699;-82
2021/04/07 05:45:48;;;;;;;;;4.75;4.00;;;;;12.30;39.54;97527.25;4879742;28;101919;-83
2021/04/07 05:49:27;;;;;;;;;5.50;5.00;;;;;12.27;39.86;97525.00;4896348;28;102194;-82
2021/04/07 05:53:16;;;;;;;;;5.50;5.00;;;;;12.30;39.28;97526.41;4887847;28;101375;-81
2021/04/07 05:56:43;;;;;;;;;7.00;5.25;;;;;12.26;39.16;97531.50;4894087;28;101411;-82
2021/04/07 05:59:49;;;;;;;;;5.00;4.00;;;;;12.27;39.68;97529.63;4884960;28;102905;-82
2021/04/07 06:03:24;;;;;;;;;4.00;4.00;;;;;12.29;39.13;97541.84;4888821;28;103562;-82
2021/04/07 06:07:01;;;;;;;;;6.00;4.50;;;;;12.29;39.37;97533.72;4901583;28;101499;-82
2021/04/07 06:10:01;;;;;;;;;3.00;3.00;;;;;12.23;39.74;97531.97;4916810;28;102225;-82
2021/04/07 06:13:01;;;;;;;;;6.25;4.00;;;;;12.29;39.03;97536.44;4898258;28;101997;-82
2021/04/07 06:16:01;;;;;;;;;3.25;3.25;;;;;12.30;39.41;97548.94;4909897;28;101075;-82
2021/04/07 06:19:16;;;;;;;;;5.75;5.75;;;;;12.31;39.64;97544.34;4918079;28;101560;-81
2021/04/07 06:22:38;;;;;;;;;4.25;4.00;;;;;12.29;39.43;97541.84;4879045;28;101997;-82
2021/04/07 06:25:51;;;;;;;;;4.00;3.50;;;;;12.31;39.12;97544.34;4897488;28;104892;-82
2021/04/07 06:28:52;;;;;;;;;4.00;3.75;;;;;12.30;39.56;97548.94;4863939;28;102070;-82
2021/04/07 06:32:01;;;;;;;;;4.00;3.50;;;;;12.28;39.39;97550.25;4915408;28;101875;-82
2021/04/07 06:35:22;;;;;;;;;6.00;5.00;;;;;12.30;39.39;97551.63;4884456;28;102455;-82
2021/04/07 06:38:43;;;;;;;;;5.00;4.25;;;;;12.26;39.49;97549.63;4913679;28;101980;-82
2021/04/07 06:42:18;;;;;;;;;3.75;3.75;;;;;12.32;39.62;97554.94;4910330;28;101533;-82
2021/04/07 06:45:40;;;;;;;;;8.00;5.00;;;;;12.33;39.50;97559.31;4905148;28;101726;-82
2021/04/07 06:49:04;;;;;;;;;5.75;5.00;;;;;12.34;39.06;97566.34;4914328;28;101234;-82
2021/04/07 06:52:50;;;;;;;;;4.75;3.00;;;;;12.33;39.53;97558.50;4898874;28;102516;-83
2021/04/07 06:56:01;;;;;;;;;4.00;3.75;;;;;12.34;39.45;97549.25;4890674;28;101695;-82
2021/04/07 06:59:01;;;;;;;;;8.25;5.50;;;;;12.32;38.81;97552.25;4893825;28;101555;-82
2021/04/07 07:02:14;;;;;;;;;3.00;3.00;;;;;12.33;39.45;97558.50;4878610;28;101996;-82
2021/04/07 07:05:08;;;;;;;;;4.25;3.25;;;;;12.35;39.14;97559.06;4881558;28;102446;-83
2021/04/07 07:08:17;;;;;;;;;5.00;4.00;;;;;12.34;39.73;97555.50;4865217;28;101658;-83
2021/04/07 07:12:01;;;;;;;;;4.00;4.00;;;;;12.34;39.52;97560.94;4878380;28;101957;-82
2021/04/07 07:15:02;;;;;;;;;3.75;3.00;;;;;12.38;39.10;97567.53;4877453;28;101562;-82
2021/04/07 07:17:55;;;;;;;;;4.75;4.25;;;;;12.37;39.03;97565.91;4863957;28;101826;-82
2021/04/07 07:20:55;;;;;;;;;3.00;3.00;;;;;12.39;39.24;97574.59;4853276;28;101396;-82
2021/04/07 07:24:02;;;;;;;;;5.00;4.00;;;;;12.36;38.88;97569.66;4878131;28;101913;-82
2021/04/07 07:26:58;;;;;;;;;3.75;3.75;;;;;12.41;39.21;97572.50;4868291;28;101927;-83
2021/04/07 07:29:54;;;;;;;;;5.00;4.00;;;;;12.42;39.33;97574.16;4867939;28;102000;-83
2021/04/07 07:32:55;;;;;;;;;4.00;3.00;;;;;12.41;39.56;97572.50;4873489;28;101364;-82
2021/04/07 07:35:41;;;;;;;;;3.00;2.50;;;;;12.40;39.01;97576.25;4856082;29;101937;-82
2021/04/07 07:39:00;;;;;;;;;2.75;2.75;;;;;12.43;38.80;97580.38;4880206;28;101751;-82
2021/04/07 07:42:01;;;;;;;;;4.00;4.00;;;;;12.38;39.67;97581.09;4888060;28;102867;-82
2021/04/07 07:45:00;;;;;;;;;3.25;3.00;;;;;12.43;38.92;97585.78;4888176;28;101896;-82
2021/04/07 07:48:22;;;;;;;;;6.00;4.00;;;;;12.41;39.30;97590.66;4879227;28;101585;-82
2021/04/07 07:51:51;;;;;;;;;4.25;3.00;;;;;12.43;39.35;97597.47;4897331;28;101672;-82
2021/04/07 07:55:00;;;;;;;;;4.00;3.00;;;;;12.44;39.04;97596.41;4903831;28;103523;-82
2021/04/07 07:58:01;;;;;;;;;3.00;3.00;;;;;12.44;38.94;97601.00;4896968;28;101555;-82
2021/04/07 08:01:00;;;;;;;;;2.00;2.00;;;;;12.43;39.22;97597.47;4881926;28;103335;-82
2021/04/07 08:04:04;;;;;;;;;2.00;2.00;;;;;12.44;39.16;97601.00;4917684;28;102422;-82
2021/04/07 08:07:01;;;;;;;;;5.00;3.00;;;;;12.45;39.47;97597.25;4867131;28;102638;-82
2021/04/07 08:10:00;;;;;;;;;3.25;2.50;;;;;12.46;39.02;97601.59;4891380;28;101985;-82
2021/04/07 08:12:58;;;;;;;;;3.00;3.00;;;;;12.42;39.14;97595.00;4901321;28;101420;-82
2021/04/07 08:15:50;;;;;;;;;4.25;3.50;;;;;12.46;39.21;97609.75;4890588;28;101535;-82
2021/04/07 08:18:57;;;;;;;;;3.25;3.25;;;;;12.45;38.83;97617.03;4895600;28;104389;-82
2021/04/07 08:22:00;;;;;;;;;4.25;3.00;;;;;12.45;38.83;97614.34;4885840;28;101240;-82
2021/04/07 08:25:01;;;;;;;;;3.50;3.00;;;;;12.42;39.35;97612.09;4892364;28;101447;-82
2021/04/07 08:28:01;;;;;;;;;4.00;2.25;;;;;12.47;38.93;97622.25;4892373;28;101532;-82
2021/04/07 08:31:03;;;;;;;;;2.00;2.00;;;;;12.47;39.21;97617.63;4891565;28;102343;-82
2021/04/07 08:34:04;;;;;;;;;2.75;2.75;;;;;12.47;39.30;97609.47;4875401;28;101331;-82
2021/04/07 08:37:09;;;;;;;;;2.00;2.00;;;;;12.47;39.17;97609.47;4883423;28;101320;-82
2021/04/07 08:40:57;;;;;;;;;2.00;2.00;;;;;12.50;39.19;97619.06;4892478;28;102131;-82
2021/04/07 08:44:02;;;;;;;;;2.00;2.00;;;;;12.50;38.94;97625.31;4899975;28;101935;-82
2021/04/07 08:47:03;;;;;;;;;3.75;2.00;;;;;12.49;39.14;97612.78;4866850;28;101260;-82
2021/04/07 08:50:21;;;;;;;;;4.00;3.25;;;;;12.50;39.24;97625.31;4879865;28;101226;-82
2021/04/07 08:53:50;;;;;;;;;2.50;2.50;;;;;12.49;38.95;97622.81;4891632;28;101841;-82
2021/04/07 08:57:07;;;;;;;;;3.75;2.75;;;;;12.52;39.15;97633.19;4911775;28;103869;-82
2021/04/07 09:00:05;;;;;;;;;2.75;1.75;;;;;12.53;38.77;97626.69;4867334;28;102157;-82
2021/04/07 09:03:35;;;;;;;;;2.00;2.00;;;;;12.53;39.09;97630.25;4855082;29;101624;-82
2021/04/07 09:07:00;;;;;;;;;1.75;1.75;;;;;12.55;38.91;97631.91;4861128;28;103518;-82
2021/04/07 09:10:00;;;;;;;;;2.00;2.00;;;;;12.57;39.02;97640.59;4878924;28;103703;-83
2021/04/07 09:13:02;;;;;;;;;2.00;2.00;;;;;12.52;38.60;97625.88;4858757;29;101176;-82
2021/04/07 09:16:20;;;;;;;;;2.00;2.00;;;;;12.56;39.16;97631.66;4864015;28;102004;-82
2021/04/07 09:19:50;;;;;;;;;2.00;2.00;;;;;12.52;38.28;97619.63;4863846;28;101310;-82
2021/04/07 09:22:58;;;;;;;;;2.00;2.00;;;;;12.59;39.63;97628.47;4868275;28;102528;-82
2021/04/07 09:25:51;;;;;;;;;2.00;1.00;;;;;12.60;38.80;97646.41;4848299;29;101860;-82
2021/04/07 09:29:01;;;;;;;;;2.25;2.00;;;;;12.59;38.95;97643.91;4870810;28;101728;-82
2021/04/07 09:32:07;;;;;;;;;2.25;1.00;;;;;12.59;38.76;97633.06;4847568;29;101842;-82
2021/04/07 09:35:59;;;;;;;;;2.00;2.00;;;;;12.60;38.84;97645.56;4873288;28;102191;-83
2021/04/07 09:39:01;;;;;;;;;2.75;2.00;;;;;12.60;38.47;97651.81;4860873;29;101433;-82
2021/04/07 09:42:20;;;;;;;;;2.00;1.50;;;;;12.60;39.11;97646.41;4841869;29;102310;-82
2021/04/07 09:45:44;;;;;;;;;2.00;2.00;;;;;12.61;38.74;97630.97;4872816;29;101668;-82
2021/04/07 09:49:01;;;;;;;;;2.00;2.00;;;;;12.63;38.36;97636.94;4850722;29;104629;-83
2021/04/07 09:52:01;;;;;;;;;1.50;1.50;;;;;12.61;38.49;97641.81;4891219;28;102850;-82
2021/04/07 09:55:02;;;;;;;;;2.00;0.75;;;;;12.62;38.75;97649.69;4889926;28;101559;-82
2021/04/07 09:58:21;;;;;;;;;1.00;1.00;;;;;12.61;38.52;97630.97;4889143;28;102292;-83
2021/04/07 10:02:01;;;;;;;;;2.00;2.00;;;;;12.64;39.33;97652.16;4889649;28;101972;-82
2021/04/07 10:05:01;;;;;;;;;2.00;2.00;;;;;12.63;39.11;97645.09;4888389;28;102139;-82
2021/04/07 10:08:38;;;;;;;;;2.50;1.75;;;;;12.66;38.69;97639.19;4878027;29;101223;-82
2021/04/07 10:11:52;;;;;;;;;2.00;1.50;;;;;12.64;38.82;97628.59;4871004;28;101217;-82
2021/04/07 10:14:54;;;;;;;;;1.50;1.00;;;;;12.66;38.94;97650.03;4870444;29;104685;-82
2021/04/07 10:18:04;;;;;;;;;1.00;1.00;;;;;12.65;38.82;97691.78;4877083;29;101561;-83
2021/04/07 10:21:17;;;;;;;;;1.00;1.00;;;;;12.66;38.29;97699.69;4862688;28;101293;-82
2021/04/07 10:24:39;;;;;;;;;2.00;1.00;;;;;12.64;38.58;97700.97;4873987;28;101946;-82
2021/04/07 10:27:50;;;;;;;;;2.00;1.00;;;;;12.64;39.00;97711.84;4875859;28;104524;-82
2021/04/07 10:31:04;;;;;;;;;0.00;0.00;;;;;12.63;39.32;97710.19;4869171;28;101766;-82
2021/04/07 10:34:20;;;;;;;;;0.75;0.75;;;;;12.59;38.79;97704.41;4857346;29;101669;-82
2021/04/07 10:37:42;;;;;;;;;1.25;1.25;;;;;12.63;38.68;97715.59;4880223;28;101410;-83
2021/04/07 10:41:00;;;;;;;;;1.00;1.00;;;;;12.59;39.00;97709.00;4865280;28;101977;-82
2021/04/07 10:44:06;;;;;;;;;1.00;1.00;;;;;12.64;38.40;97706.41;4854205;29;101680;-82
2021/04/07 10:47:02;;;;;;;;;1.00;1.00;;;;;12.65;38.54;97708.91;4867593;28;101516;-82
2021/04/07 10:50:06;;;;;;;;;2.75;1.00;;;;;12.62;39.11;97697.66;4861465;28;101872;-82
2021/04/07 10:53:30;;;;;;;;;1.25;1.00;;;;;12.64;38.59;97707.25;4871261;28;101824;-82
2021/04/07 10:56:44;;;;;;;;;1.50;1.00;;;;;12.68;39.25;97704.88;4859898;29;101611;-82
2021/04/07 11:00:02;;;;;;;;;1.00;1.00;;;;;12.69;39.11;97695.69;4869239;28;102043;-82
2021/04/07 11:03:01;;;;;;;;;1.00;1.00;;;;;12.70;39.32;97695.44;4864952;28;101322;-82
2021/04/07 11:06:24;;;;;;;;;1.75;1.00;;;;;12.73;38.57;97700.41;4889250;28;103602;-82
2021/04/07 11:13:40;;;;;;;;;1.00;0.75;;;;;12.76;38.36;97683.63;4914338;28;101419;-82
2021/04/07 11:17:00;;;;;;;;;0.75;0.75;;;;;12.82;38.64;97676.44;4890930;28;101563;-82
2021/04/07 11:20:02;;;;;;;;;1.00;1.00;;;;;12.84;38.91;97679.72;4898115;28;102903;-82
2021/04/07 11:24:00;;;;;;;;;1.00;1.00;;;;;12.84;38.97;97664.28;4908201;28;101943;-82
2021/04/07 11:27:01;;;;;;;;;1.00;1.00;;;;;12.85;38.25;97667.81;4890117;28;101280;-82
2021/04/07 11:29:53;;;;;;;;;2.00;1.00;;;;;12.92;38.43;97676.69;4899998;28;101183;-83
2021/04/07 11:33:03;;;;;;;;;0.25;0.00;;;;;12.93;38.21;97678.31;4894977;28;101864;-82
2021/04/07 11:40:04;;;;;;;;;1.00;1.00;;;;;12.92;38.94;97698.38;4901861;28;101735;-82
2021/04/07 11:43:26;;;;;;;;;1.00;1.00;;;;;12.90;38.92;97704.03;4901266;28;101722;-82
2021/04/07 11:46:26;;;;;;;;;1.00;1.00;;;;;12.88;38.35;97697.19;4896979;28;102447;-83
2021/04/07 11:49:50;;;;;;;;;1.00;1.00;;;;;12.88;38.08;97713.47;4904973;28;103342;-83
2021/04/07 11:53:08;;;;;;;;;0.00;0.00;;;;;12.89;38.63;97728.69;4910319;28;101194;-83
2021/04/07 11:56:30;;;;;;;;;1.00;1.00;;;;;12.88;38.96;97738.69;4881760;28;101912;-83
2021/04/07 12:00:12;;;;;;;;;1.00;1.00;;;;;12.87;38.93;97730.81;4890278;28;104892;-82
2021/04/07 12:03:47;;;;;;;;;0.75;0.75;;;;;12.90;38.91;97727.63;4895013;28;101611;-84
2021/04/07 12:06:56;;;;;;;;;1.00;1.00;;;;;12.95;38.76;97735.88;4905699;28;101429;-82
2021/04/07 12:10:02;;;;;;;;;0.25;0.25;;;;;12.93;38.54;97738.00;4891481;28;101965;-82
2021/04/07 12:13:00;;;;;;;;;0.00;0.00;;;;;12.93;38.18;97759.69;4894559;28;101895;-82
2021/04/07 12:16:16;;;;;;;;;0.25;0.25;;;;;12.91;38.02;97761.84;4893695;28;101525;-82
2021/04/07 12:19:40;;;;;;;;;1.75;1.75;;;;;12.92;38.89;97758.06;4892964;28;101555;-82
2021/04/07 12:22:55;;;;;;;;;0.25;0.25;;;;;12.93;38.94;97759.69;4898866;28;101688;-83
2021/04/07 12:25:54;;;;;;;;;0.00;0.00;;;;;12.92;39.09;97739.09;4900486;28;103299;-83
2021/04/07 12:29:01;;;;;;;;;1.00;0.25;;;;;12.92;39.09;97736.38;4895397;28;101440;-82
2021/04/07 12:31:50;;;;;;;;;0.00;0.00;;;;;12.93;37.95;97735.28;4881453;28;101867;-82
2021/04/07 12:35:01;;;;;;;;;1.00;1.00;;;;;12.93;39.08;97727.13;4897443;28;102500;-82
2021/04/07 12:38:01;;;;;;;;;1.00;0.50;;;;;12.96;38.26;97732.13;4907489;28;102673;-82
2021/04/07 12:41:01;;;;;;;;;0.00;0.00;;;;;13.00;38.58;97740.59;4899163;28;101559;-83
2021/04/07 12:44:00;;;;;;;;;2.00;1.00;;;;;13.02;38.08;97727.59;4898384;28;101691;-83
2021/04/07 12:47:00;;;;;;;;;1.00;0.00;;;;;13.06;38.14;97710.59;4906529;28;101641;-82
2021/04/07 12:50:02;;;;;;;;;0.25;0.00;;;;;13.06;39.06;97721.47;4892853;28;102175;-83
2021/04/07 12:53:10;;;;;;;;;2.00;0.00;;;;;13.12;38.26;97712.41;4879557;28;102807;-83
2021/04/07 12:56:18;;;;;;;;;0.25;0.00;;;;;13.15;38.49;97720.06;4879351;28;101371;-85
2021/04/07 13:00:02;;;;;;;;;0.75;0.00;;;;;13.20;38.95;97722.88;4898313;28;101772;-82
2021/04/07 13:03:01;;;;;;;;;0.50;0.25;;;;;13.25;39.09;97712.13;4880686;28;102360;-83
2021/04/07 13:06:01;;;;;;;;;0.00;0.00;;;;;13.29;38.31;97709.75;4895628;28;101560;-82
2021/04/07 13:09:01;;;;;;;;;0.00;0.00;;;;;13.32;38.66;97703.88;4886902;28;101370;-83
2021/04/07 13:11:50;;;;;;;;;0.00;0.00;;;;;13.36;38.16;97705.88;4896207;28;101544;-82
2021/04/07 13:15:01;;;;;;;;;0.00;0.00;;;;;13.37;37.93;97704.78;4893771;28;101963;-82
2021/04/07 13:18:02;;;;;;;;;0.00;0.00;;;;;13.38;38.77;97698.28;4883018;28;101591;-82
2021/04/07 13:21:08;;;;;;;;;0.00;0.00;;;;;13.39;38.73;97701.84;4874305;28;101962;-82
2021/04/07 13:24:34;;;;;;;;;0.50;0.00;;;;;13.37;38.54;97720.28;4892477;28;102016;-85
2021/04/07 13:27:53;;;;;;;;;0.00;0.00;;;;;13.38;38.03;97721.91;4886084;28;102296;-82
2021/04/07 13:30:55;;;;;;;;;2.00;1.00;;;;;13.36;38.94;97721.34;4898883;28;101378;-82
2021/04/07 13:34:06;;;;;;;;;0.00;0.00;;;;;13.37;37.84;97728.41;4869862;28;101684;-82
2021/04/07 13:41:34;;;;;;;;;0.00;0.00;;;;;13.36;38.20;97716.72;4886742;28;102153;-82
2021/04/07 13:44:36;;;;;;;;;0.25;0.25;;;;;13.39;38.84;97713.53;4890235;28;102432;-83
2021/04/07 13:47:33;;;;;;;;;0.00;0.00;;;;;13.42;38.02;97714.91;4878883;28;100999;-83
2021/04/07 13:50:53;;;;;;;;;0.50;0.50;;;;;13.43;38.11;97718.47;4888618;28;101446;-83
2021/04/07 13:53:51;;;;;;;;;1.00;0.00;;;;;13.43;37.93;97715.75;4892102;28;102026;-82
2021/04/07 13:59:55;;;;;;;;;0.75;0.00;;;;;13.36;38.71;97714.00;4891565;28;101474;-86
2021/04/07 14:03:12;;;;;;;;;0.00;0.00;;;;;13.44;37.89;97722.84;4893516;28;101938;-82
2021/04/07 14:06:19;;;;;;;;;0.00;0.00;;;;;13.47;37.83;97719.63;4895179;28;103391;-82
2021/04/07 14:09:39;;;;;;;;;0.00;0.00;;;;;13.46;38.62;97709.84;4892066;28;101758;-82
2021/04/07 14:13:00;;;;;;;;;0.00;0.00;;;;;13.48;38.81;97715.84;4913990;28;101684;-82
2021/04/07 14:15:57;;;;;;;;;0.00;0.00;;;;;13.43;38.03;97708.44;4914690;28;101781;-81
2021/04/07 14:18:57;;;;;;;;;0.00;0.00;;;;;13.49;37.86;97721.06;4890574;28;102451;-82
2021/04/07 14:21:46;;;;;;;;;0.00;0.00;;;;;13.49;38.26;97722.94;4909782;28;101894;-81
2021/04/07 14:24:53;;;;;;;;;1.00;0.00;;;;;13.48;38.72;97713.13;4899825;28;101281;-81
2021/04/07 14:28:02;;;;;;;;;0.00;0.00;;;;;13.51;38.02;97708.03;4906981;28;101687;-81
2021/04/07 14:31:16;;;;;;;;;1.00;0.00;;;;;13.57;38.68;97717.13;4887011;28;102056;-81
2021/04/07 14:34:17;;;;;;;;;0.00;0.00;;;;;13.61;37.71;97716.41;4895971;28;101510;-81
2021/04/07 14:37:02;;;;;;;;;0.00;0.00;;;;;13.61;38.55;97718.28;4885953;28;102841;-81
2021/04/07 14:39:51;;;;;;;;;0.75;0.00;;;;;13.69;37.78;97716.00;4885412;28;102064;-81
2021/04/07 14:42:47;;;;;;;;;0.00;0.00;;;;;13.71;38.28;97729.34;4881822;28;102977;-81
2021/04/07 14:45:43;;;;;;;;;0.00;0.00;;;;;13.71;37.69;97734.78;4899953;28;101653;-82
2021/04/07 14:48:45;;;;;;;;;0.00;0.00;;;;;13.69;38.55;97736.91;4877984;28;101890;-82
2021/04/07 14:51:47;;;;;;;;;1.00;0.00;;;;;13.69;38.29;97736.91;4906924;28;101554;-88
2021/04/07 14:54:47;;;;;;;;;1.00;0.00;;;;;13.68;38.28;97738.00;4898554;28;102473;-81
2021/04/07 14:58:01;;;;;;;;;1.00;0.00;;;;;13.68;38.50;97744.25;4902925;28;101230;-81
2021/04/07 15:01:03;;;;;;;;;0.00;0.00;;;;;13.65;37.83;97739.28;4895876;28;101471;-80
2021/04/07 15:04:01;;;;;;;;;0.00;0.00;;;;;13.66;37.64;97751.00;4894799;28;102355;-81
2021/04/07 15:07:04;;;;;;;;;1.00;0.00;;;;;13.63;38.52;97749.59;4884082;28;104755;-81
2021/04/07 15:10:46;;;;;;;;;0.00;0.00;;;;;13.61;37.42;97746.28;4870698;28;102587;-79
2021/04/07 15:14:00;;;;;;;;;0.00;0.00;;;;;13.62;37.83;97758.81;4861706;28;102024;-82
2021/04/07 15:16:51;;;;;;;;;0.00;0.00;;;;;13.62;37.78;97753.38;4875662;28;102183;-82
2021/04/07 15:19:48;;;;;;;;;1.00;0.00;;;;;13.65;38.05;97754.75;4888669;28;102496;-79
2021/04/07 15:22:43;;;;;;;;;0.75;0.00;;;;;13.64;38.51;97753.97;4887057;28;101851;-80
2021/04/07 15:25:42;;;;;;;;;0.00;0.00;;;;;13.64;38.09;97764.84;4885749;28;101803;-79
2021/04/07 15:28:39;;;;;;;;;0.00;0.00;;;;;13.57;37.42;97755.16;4884872;28;101919;-79